Pagrindinis puslapis
METAR-TAF:

METAR-TAF

Oro uostai :

Kuširas, Japonija

platuma: 43-02N, ilguma: 144-12E, Aukštis: 95 m

Dabartinis oras

Ataskaita buvo paskelbta 2 valandos ir 20 minutes, ne 11:00 UTC
Vėjas 1 kt iš Vakarų
Temperatūra -4°C
Drėgmė 74%
Slėgis 1020 hPa
Matomumas 10 km arba daugiau
Mažai debesys ne aukštis 4000 ft

METAR: RJCK 251100Z 28001KT 9999 FEW040 M04/M08 Q1020

Laikas: 22:20 (13:20 UTC)

Prognozė

Ataskaita buvo paskelbta 2 valandos ir 11 minutes, ne 11:09 UTC
Prognozė galioja nuo 25 metu 12 UTC su 26 metu 18 UTC
Vėjas 7 kt iš Šiaurės/Šiaurės Vakarų
Matomumas 10 km arba daugiau
Mažai debesys ne aukštis 3000 ft
Tapsmas
nuo 25 metu 21 UTC su 25 metu 23 UTC
Vėjas 10 kt iš Šiaurės/Šiaurės Rytų
Tapsmas
nuo 26 metu 12 UTC su 26 metu 15 UTC
Vėjas 4 kt iš Pietų

TAF: RJCK 251109Z 2512/2618 33007KT 9999 FEW030 BECMG 2521/2523 03010KT BECMG 2612/2615 17004KT

Orai ataskaitas ir orų prognozės (METAR, TAF).

turimą stotys yra geltonos ir raudonos taškus žemėlapyje.

Perkelti pele per norėdami pamatyti stoties vardą.

Tada spustelėkite, norėdami matyti oro stebėjimo ir prognozės.

Norėdami pakeisti žemėlapį: spustelėkite ant žalios mygtukų su juodo kryžiaus žemyn,; žalią mygtuką su brūkšneliu, jei norite nutolinti; arba žalių rodyklių gretimoms žemėlapius.


METAR-TAF: